createdAt,value
2023-04-01T00:01:25.877Z,70.91
2023-04-01T00:03:52.750Z,71.25
2023-04-01T00:06:20.048Z,70.92
2023-04-01T00:08:47.283Z,71.19
2023-04-01T00:11:14.890Z,70.61
2023-04-01T00:13:42.359Z,70.12
2023-04-01T00:16:17.915Z,70.35
2023-04-01T00:18:48.589Z,70.08
2023-04-01T00:21:16.287Z,70.75
2023-04-01T00:23:43.189Z,70.62
2023-04-01T00:26:10.272Z,70.53
2023-04-01T00:28:38.334Z,69.80
2023-04-01T00:31:07.208Z,70.39
2023-04-01T00:33:34.030Z,71.76
2023-04-01T00:36:12.860Z,72.20
2023-04-01T00:38:40.085Z,72.08
2023-04-01T00:41:07.114Z,72.86
2023-04-01T00:43:34.381Z,73.96
2023-04-01T00:46:01.496Z,76.33
2023-04-01T00:48:36.075Z,76.20
2023-04-01T00:51:12.668Z,76.66
2023-04-01T00:53:44.024Z,76.73
2023-04-01T00:56:15.459Z,74.26
2023-04-01T00:58:47.372Z,74.17
2023-04-01T01:01:14.246Z,74.48
2023-04-01T01:03:41.511Z,73.71
2023-04-01T01:06:40.111Z,73.92
2023-04-01T01:09:29.047Z,73.72
2023-04-01T01:12:06.016Z,74.85
2023-04-01T01:14:53.837Z,74.34
2023-04-01T01:17:26.841Z,75.01
2023-04-01T01:20:25.914Z,74.48
2023-04-01T01:23:18.444Z,74.12
2023-04-01T01:25:56.716Z,75.02
2023-04-01T01:28:51.499Z,74.80
2023-04-01T01:31:35.361Z,75.14
2023-04-01T01:34:24.572Z,76.35
2023-04-01T01:36:57.390Z,76.17
2023-04-01T01:39:30.083Z,77.43
2023-04-01T01:42:01.437Z,77.85
2023-04-01T01:44:31.656Z,77.98
2023-04-01T01:46:58.877Z,78.95
2023-04-01T01:49:27.111Z,78.62
2023-04-01T01:51:57.463Z,79.38
2023-04-01T01:54:24.283Z,80.38
2023-04-01T01:56:56.972Z,80.65
2023-04-01T01:59:29.326Z,79.90
2023-04-01T02:01:57.960Z,80.56
2023-04-01T02:04:26.435Z,79.49
2023-04-01T02:07:04.401Z,80.47
2023-04-01T02:09:31.367Z,80.67
2023-04-01T02:12:02.138Z,80.67
2023-04-01T02:14:47.203Z,81.31
2023-04-01T02:17:18.880Z,80.98
2023-04-01T02:19:56.942Z,81.26
2023-04-01T02:22:28.872Z,81.69
2023-04-01T02:25:00.306Z,81.30
2023-04-01T02:27:27.051Z,80.52
2023-04-01T02:29:56.492Z,79.39
2023-04-01T02:32:23.328Z,81.16
2023-04-01T02:34:50.666Z,79.11
2023-04-01T02:37:17.989Z,79.98
2023-04-01T02:39:44.754Z,79.18
2023-04-01T02:42:11.687Z,79.06
2023-04-01T02:44:38.357Z,79.24
2023-04-01T02:47:05.090Z,79.71
2023-04-01T02:49:31.868Z,79.59
2023-04-01T02:51:58.568Z,79.23
2023-04-01T02:54:25.349Z,78.73
2023-04-01T02:56:52.156Z,77.46
2023-04-01T02:59:18.895Z,78.77
2023-04-01T03:01:45.614Z,78.55
2023-04-01T03:04:12.243Z,77.32
2023-04-01T03:06:38.891Z,76.77
2023-04-01T03:09:05.647Z,77.51
2023-04-01T03:11:32.279Z,77.63
2023-04-01T03:13:58.968Z,78.41
2023-04-01T03:16:25.862Z,77.54
2023-04-01T03:18:53.579Z,77.82
2023-04-01T03:21:24.850Z,79.29
2023-04-01T03:23:51.497Z,79.36
2023-04-01T03:26:19.187Z,78.95
2023-04-01T03:28:45.858Z,79.03
2023-04-01T03:31:13.530Z,78.43
2023-04-01T03:33:46.983Z,78.96
2023-04-01T03:36:14.045Z,80.37
2023-04-01T03:38:41.981Z,79.70
2023-04-01T03:41:08.708Z,80.32
2023-04-01T03:43:35.453Z,79.99
2023-04-01T03:46:02.549Z,80.07
2023-04-01T03:48:29.995Z,80.96
2023-04-01T03:50:56.651Z,80.77
2023-04-01T03:53:23.853Z,80.48
2023-04-01T03:55:52.337Z,80.84
2023-04-01T03:58:19.081Z,80.83
2023-04-01T04:00:46.204Z,81.20
2023-04-01T04:03:13.079Z,80.87
2023-04-01T04:05:50.442Z,80.40
2023-04-01T04:08:18.747Z,80.70
2023-04-01T04:10:45.795Z,81.09
2023-04-01T04:13:12.429Z,82.61
2023-04-01T04:15:45.403Z,81.54
2023-04-01T04:18:12.133Z,81.46
2023-04-01T04:20:46.487Z,81.80
2023-04-01T04:23:13.217Z,81.86
2023-04-01T04:25:41.210Z,81.48
2023-04-01T04:28:08.027Z,82.08
2023-04-01T04:30:35.292Z,82.62
2023-04-01T04:33:02.775Z,82.21
2023-04-01T04:35:29.480Z,81.46
2023-04-01T04:37:56.192Z,80.91
2023-04-01T04:40:23.188Z,82.31
2023-04-01T04:42:49.970Z,82.23
2023-04-01T04:45:16.869Z,81.86
2023-04-01T04:47:52.575Z,81.84
2023-04-01T04:50:19.273Z,82.70
2023-04-01T04:52:46.006Z,84.23
2023-04-01T04:55:13.006Z,84.06
2023-04-01T04:57:42.524Z,83.48
2023-04-01T05:00:11.032Z,83.84
2023-04-01T05:02:52.842Z,83.77
2023-04-01T05:05:19.681Z,83.78
2023-04-01T05:07:46.728Z,83.98
2023-04-01T05:10:13.498Z,83.78
2023-04-01T05:12:40.336Z,84.30
2023-04-01T05:15:09.714Z,83.13
2023-04-01T05:17:36.707Z,83.82
2023-04-01T05:20:05.074Z,84.31
2023-04-01T05:22:31.827Z,84.13
2023-04-01T05:24:58.528Z,84.95
2023-04-01T05:27:25.735Z,84.53
2023-04-01T05:29:53.202Z,84.65
2023-04-01T05:32:46.330Z,85.76
2023-04-01T05:35:13.050Z,85.34
2023-04-01T05:37:39.850Z,83.74
2023-04-01T05:40:07.215Z,84.54
2023-04-01T05:42:36.790Z,86.29
2023-04-01T05:45:05.207Z,85.90
2023-04-01T05:48:09.694Z,86.70
2023-04-01T05:50:41.641Z,86.36
2023-04-01T05:53:09.488Z,87.04
2023-04-01T05:55:37.535Z,87.34
2023-04-01T05:58:05.055Z,88.32
2023-04-01T06:00:32.240Z,87.54
2023-04-01T06:03:00.919Z,87.58
2023-04-01T06:05:39.180Z,88.30
2023-04-01T06:08:20.099Z,88.13
2023-04-01T06:10:56.840Z,87.62
2023-04-01T06:13:41.814Z,88.98
2023-04-01T06:16:36.666Z,88.74
2023-04-01T06:19:09.353Z,89.36
2023-04-01T06:21:42.737Z,88.97
2023-04-01T06:24:22.182Z,88.48
2023-04-01T06:27:10.881Z,88.51
2023-04-01T06:30:02.045Z,88.45
2023-04-01T06:32:41.192Z,89.20
2023-04-01T06:35:29.782Z,89.88
2023-04-01T06:38:02.432Z,90.10
2023-04-01T06:40:58.874Z,90.70
2023-04-01T06:43:44.361Z,89.91
2023-04-01T06:46:46.554Z,89.34
2023-04-01T06:50:22.312Z,90.05
2023-04-01T06:53:48.228Z,91.13
2023-04-01T06:56:35.170Z,90.82
2023-04-01T06:59:26.012Z,90.30
2023-04-01T07:02:06.787Z,90.55
2023-04-01T07:04:40.137Z,90.11
2023-04-01T07:07:31.995Z,89.58
2023-04-01T07:10:10.617Z,89.11
2023-04-01T07:13:03.058Z,90.17
2023-04-01T07:15:59.073Z,89.45
2023-04-01T07:18:42.582Z,89.27
2023-04-01T07:21:58.881Z,87.76
2023-04-01T07:24:40.467Z,88.22
2023-04-01T07:27:14.013Z,89.21
2023-04-01T07:29:42.387Z,88.63
2023-04-01T07:32:36.140Z,87.95
2023-04-01T07:35:08.197Z,87.85
2023-04-01T07:38:00.466Z,87.83
2023-04-01T07:40:38.714Z,87.53
2023-04-01T07:43:25.135Z,86.90
2023-04-01T07:46:13.217Z,86.24
2023-04-01T07:48:42.249Z,86.78
2023-04-01T07:51:21.394Z,85.86
2023-04-01T07:54:14.065Z,87.04
2023-04-01T07:56:49.196Z,86.49
2023-04-01T07:59:40.831Z,87.88
2023-04-01T08:02:50.344Z,87.40
2023-04-01T08:05:27.169Z,87.39
2023-04-01T08:08:30.763Z,86.62
2023-04-01T08:11:34.305Z,87.94
2023-04-01T08:14:57.013Z,86.96
2023-04-01T08:17:59.766Z,86.76
2023-04-01T08:20:40.372Z,86.46
2023-04-01T08:23:14.837Z,85.93
2023-04-01T08:26:12.223Z,85.90
2023-04-01T08:28:50.137Z,85.48
2023-04-01T08:31:27.728Z,86.44
2023-04-01T08:33:55.624Z,86.46
2023-04-01T08:36:32.320Z,84.92
2023-04-01T08:39:31.186Z,83.94
2023-04-01T08:42:24.887Z,85.31
2023-04-01T08:45:23.992Z,86.83
2023-04-01T08:48:26.301Z,85.65
2023-04-01T08:51:09.165Z,86.45
2023-04-01T08:54:02.522Z,85.38
2023-04-01T08:57:15.276Z,85.93
2023-04-01T09:00:25.354Z,86.06
2023-04-01T09:03:15.972Z,86.33
2023-04-01T09:06:03.507Z,86.38
2023-04-01T09:09:09.778Z,86.83
2023-04-01T09:12:11.309Z,87.38
2023-04-01T09:14:47.503Z,86.64
2023-04-01T09:17:35.816Z,87.07
2023-04-01T09:20:38.111Z,86.30
2023-04-01T09:23:49.620Z,87.88
2023-04-01T09:26:19.239Z,86.88
2023-04-01T09:29:12.198Z,87.32
2023-04-01T09:31:57.230Z,87.04
2023-04-01T09:35:19.269Z,87.27
2023-04-01T09:37:53.437Z,88.68
2023-04-01T09:40:42.701Z,87.14
2023-04-01T09:43:43.296Z,86.24
2023-04-01T09:46:18.753Z,86.92
2023-04-01T09:49:19.900Z,86.53
2023-04-01T09:52:08.370Z,85.44
2023-04-01T09:54:47.284Z,85.00
2023-04-01T09:57:35.880Z,83.96
2023-04-01T10:00:35.791Z,83.08
2023-04-01T10:04:00.452Z,83.93
2023-04-01T10:07:05.574Z,85.10
2023-04-01T10:09:58.303Z,84.11
2023-04-01T10:12:38.020Z,83.35
2023-04-01T10:15:36.455Z,83.72
2023-04-01T10:18:20.435Z,82.96
2023-04-01T10:20:56.494Z,83.10
2023-04-01T10:24:12.502Z,82.88
2023-04-01T10:27:00.947Z,83.43
2023-04-01T10:30:15.629Z,82.58
2023-04-01T10:33:08.152Z,82.59
2023-04-01T10:36:16.764Z,83.21
2023-04-01T10:38:59.759Z,83.04
2023-04-01T10:41:32.647Z,82.26
2023-04-01T10:44:46.291Z,81.54
2023-04-01T10:47:22.988Z,82.42
2023-04-01T10:50:09.144Z,82.51
2023-04-01T10:52:51.665Z,81.99
2023-04-01T10:56:04.400Z,82.04
2023-04-01T10:59:28.426Z,82.19
2023-04-01T11:02:32.219Z,81.54
2023-04-01T11:05:56.351Z,81.85
2023-04-01T11:08:32.231Z,79.86
2023-04-01T11:11:18.382Z,80.05
2023-04-01T11:13:48.422Z,79.80
2023-04-01T11:16:40.101Z,80.87
2023-04-01T11:19:42.382Z,79.72
2023-04-01T11:22:17.222Z,79.55
2023-04-01T11:25:26.389Z,79.92
2023-04-01T11:28:38.594Z,78.55
2023-04-01T11:31:27.032Z,79.35
2023-04-01T11:34:25.049Z,78.53
2023-04-01T11:37:00.881Z,77.63
2023-04-01T11:39:35.749Z,78.48
2023-04-01T11:42:56.164Z,78.76
2023-04-01T11:46:32.554Z,78.12
2023-04-01T11:49:05.317Z,79.19
2023-04-01T11:52:13.151Z,78.46
2023-04-01T11:54:56.289Z,77.02
2023-04-01T11:57:37.949Z,76.83
2023-04-01T12:00:19.702Z,76.60
2023-04-01T12:03:11.329Z,76.16
2023-04-01T12:05:41.102Z,75.97
2023-04-01T12:08:13.466Z,75.35
2023-04-01T12:11:02.699Z,74.87
2023-04-01T12:13:35.305Z,75.28
2023-04-01T12:16:12.811Z,75.23
2023-04-01T12:18:58.277Z,75.24
2023-04-01T12:22:00.287Z,76.70
2023-04-01T12:24:41.013Z,75.83
2023-04-01T12:27:36.796Z,75.15
2023-04-01T12:30:31.544Z,75.31
2023-04-01T12:33:29.441Z,74.42
2023-04-01T12:36:23.632Z,74.46
2023-04-01T12:38:59.141Z,74.27
2023-04-01T12:41:38.019Z,73.34
2023-04-01T12:44:36.550Z,72.45
2023-04-01T12:47:19.218Z,72.86
2023-04-01T12:49:51.982Z,71.39
2023-04-01T12:52:40.093Z,73.08
2023-04-01T12:55:26.637Z,73.00
2023-04-01T12:58:09.869Z,71.88
2023-04-01T13:00:51.577Z,72.68
2023-04-01T13:03:46.326Z,71.44
2023-04-01T13:06:20.887Z,71.48
2023-04-01T13:09:20.851Z,73.11
2023-04-01T13:12:18.072Z,73.85
2023-04-01T13:14:58.438Z,73.62
2023-04-01T13:17:45.932Z,74.07
2023-04-01T13:20:21.293Z,74.59
2023-04-01T13:23:46.082Z,74.21
2023-04-01T13:26:38.289Z,72.74
2023-04-01T13:29:32.399Z,72.75
2023-04-01T13:32:43.251Z,72.52
2023-04-01T13:35:34.879Z,73.03
2023-04-01T13:38:43.238Z,73.39
2023-04-01T13:41:28.503Z,74.85
2023-04-01T13:44:00.959Z,75.69
2023-04-01T13:46:35.794Z,76.87
2023-04-01T13:49:17.930Z,77.09
2023-04-01T13:52:03.934Z,76.31
2023-04-01T13:54:58.437Z,76.28
2023-04-01T13:57:44.591Z,75.02
2023-04-01T14:00:33.107Z,75.89
2023-04-01T14:03:33.911Z,77.02
2023-04-01T14:06:27.589Z,76.52
2023-04-01T14:08:57.063Z,76.20
2023-04-01T14:11:40.413Z,78.29
2023-04-01T14:14:28.437Z,80.35
2023-04-01T14:17:01.085Z,80.44
2023-04-01T14:19:45.821Z,80.01
2023-04-01T14:22:32.778Z,80.54
2023-04-01T14:25:27.325Z,78.34
2023-04-01T14:28:13.167Z,79.85
2023-04-01T14:30:48.165Z,78.84
2023-04-01T14:33:36.555Z,77.01
2023-04-01T14:36:16.969Z,77.13
2023-04-01T14:39:17.553Z,77.71
2023-04-01T14:41:50.315Z,77.92
2023-04-01T14:44:44.430Z,77.21
2023-04-01T14:47:35.866Z,77.12
2023-04-01T14:50:18.775Z,77.64
2023-04-01T14:53:16.488Z,76.44
2023-04-01T14:55:49.192Z,75.92
2023-04-01T14:58:18.961Z,75.57
2023-04-01T15:01:07.537Z,74.15
2023-04-01T15:03:50.403Z,74.43
2023-04-01T15:06:38.280Z,74.04
2023-04-01T15:09:13.684Z,74.72
2023-04-01T15:12:00.354Z,74.43
2023-04-01T15:14:50.901Z,74.87
2023-04-01T15:17:36.370Z,74.71
2023-04-01T15:20:30.638Z,73.93
2023-04-01T15:23:08.116Z,75.29
2023-04-01T15:25:43.836Z,75.88
2023-04-01T15:28:31.859Z,75.23
2023-04-01T15:31:19.968Z,75.44
2023-04-01T15:33:52.484Z,77.45
2023-04-01T15:36:50.301Z,77.17
2023-04-01T15:39:31.243Z,78.60
2023-04-01T15:42:07.762Z,77.92
2023-04-01T15:44:53.403Z,79.06
2023-04-01T15:47:26.188Z,79.08
2023-04-01T15:50:39.032Z,77.66
2023-04-01T15:53:21.210Z,77.34
2023-04-01T15:56:16.184Z,77.44
2023-04-01T15:59:09.060Z,77.43
2023-04-01T16:01:47.348Z,76.97
2023-04-01T16:04:47.621Z,76.72
2023-04-01T16:07:39.183Z,75.99
2023-04-01T16:10:14.938Z,77.13
2023-04-01T16:13:07.390Z,76.09
2023-04-01T16:15:53.317Z,76.67
2023-04-01T16:18:29.084Z,76.95
2023-04-01T16:21:01.666Z,75.86
2023-04-01T16:23:49.056Z,77.12
2023-04-01T16:26:29.645Z,77.58
2023-04-01T16:29:08.986Z,77.12
2023-04-01T16:31:39.192Z,76.19
2023-04-01T16:34:20.737Z,75.84
2023-04-01T16:37:05.381Z,74.66
2023-04-01T16:39:54.236Z,75.22
2023-04-01T16:42:43.970Z,74.58
2023-04-01T16:45:25.576Z,74.62
2023-04-01T16:47:57.712Z,74.19
2023-04-01T16:50:28.619Z,73.95
2023-04-01T16:53:00.812Z,75.76
2023-04-01T16:55:46.679Z,75.25
2023-04-01T16:58:22.683Z,74.68
2023-04-01T17:00:52.874Z,75.21
2023-04-01T17:03:32.970Z,74.60
2023-04-01T17:05:59.600Z,76.28
2023-04-01T17:08:49.760Z,75.39
2023-04-01T17:11:23.820Z,75.33
2023-04-01T17:13:55.840Z,76.12
2023-04-01T17:16:31.627Z,75.24
2023-04-01T17:19:23.811Z,75.11
2023-04-01T17:22:03.269Z,75.29
2023-04-01T17:24:46.717Z,74.87
2023-04-01T17:27:27.081Z,74.12
2023-04-01T17:30:16.202Z,74.75
2023-04-01T17:33:21.961Z,75.35
2023-04-01T17:35:59.317Z,74.43
2023-04-01T17:38:51.036Z,75.84
2023-04-01T17:41:54.515Z,75.06
2023-04-01T17:44:42.558Z,75.13
2023-04-01T17:47:23.681Z,75.12
2023-04-01T17:50:15.126Z,75.51
2023-04-01T17:52:57.050Z,75.51
2023-04-01T17:55:29.767Z,76.61
2023-04-01T17:58:23.981Z,76.44
2023-04-01T18:01:09.744Z,77.16
2023-04-01T18:04:02.536Z,77.06
2023-04-01T18:06:41.290Z,75.95
2023-04-01T18:09:22.989Z,77.01
2023-04-01T18:12:08.382Z,76.33
2023-04-01T18:14:56.341Z,76.51
2023-04-01T18:17:41.424Z,75.88
2023-04-01T18:20:37.511Z,76.67
2023-04-01T18:23:19.975Z,75.80
2023-04-01T18:25:49.595Z,75.95
2023-04-01T18:28:23.348Z,76.23
2023-04-01T18:31:16.043Z,75.95
2023-04-01T18:33:50.322Z,75.68
2023-04-01T18:36:19.949Z,75.62
2023-04-01T18:39:03.714Z,75.18
2023-04-01T18:41:36.341Z,75.48
2023-04-01T18:44:15.313Z,75.48
2023-04-01T18:46:47.001Z,75.29
2023-04-01T18:49:35.678Z,76.00
2023-04-01T18:52:36.576Z,74.66
2023-04-01T18:55:03.231Z,75.29
2023-04-01T18:57:51.925Z,74.62
2023-04-01T19:00:27.065Z,75.95
2023-04-01T19:03:01.630Z,75.29
2023-04-01T19:05:39.304Z,75.20
2023-04-01T19:08:26.913Z,74.92
2023-04-01T19:11:28.209Z,75.34
2023-04-01T19:14:16.367Z,76.11
2023-04-01T19:17:07.354Z,74.89
2023-04-01T19:19:46.037Z,76.07
2023-04-01T19:22:32.059Z,75.87
2023-04-01T19:25:24.475Z,75.81
2023-04-01T19:27:53.932Z,75.55
2023-04-01T19:30:23.664Z,75.70
2023-04-01T19:33:20.924Z,75.59
2023-04-01T19:36:18.558Z,75.77
2023-04-01T19:38:58.759Z,75.85
2023-04-01T19:41:28.301Z,75.38
2023-04-01T19:44:06.802Z,74.86
2023-04-01T19:46:38.331Z,75.99
2023-04-01T19:49:16.883Z,75.73
2023-04-01T19:51:52.584Z,76.22
2023-04-01T19:54:37.710Z,76.08
2023-04-01T19:57:24.253Z,75.22
2023-04-01T20:00:08.732Z,75.87
2023-04-01T20:02:59.465Z,75.89
2023-04-01T20:05:26.690Z,75.49
2023-04-01T20:08:00.946Z,75.19
2023-04-01T20:10:43.552Z,75.78
2023-04-01T20:13:33.511Z,76.17
2023-04-01T20:16:07.001Z,76.22
2023-04-01T20:18:53.552Z,76.45
2023-04-01T20:21:38.632Z,76.12
2023-04-01T20:24:08.245Z,76.58
2023-04-01T20:26:40.442Z,76.15
2023-04-01T20:29:42.428Z,76.69
2023-04-01T20:32:27.552Z,75.51
2023-04-01T20:35:27.284Z,75.59
2023-04-01T20:38:11.899Z,76.12
2023-04-01T20:40:42.426Z,75.97
2023-04-01T20:43:18.724Z,76.02
2023-04-01T20:46:12.663Z,76.09
2023-04-01T20:49:01.238Z,75.84
2023-04-01T20:51:32.349Z,75.66
2023-04-01T20:54:20.787Z,75.20
2023-04-01T20:57:05.869Z,76.27
2023-04-01T20:59:59.329Z,75.60
2023-04-01T21:03:07.453Z,75.08
2023-04-01T21:06:16.656Z,76.31
2023-04-01T21:09:18.689Z,76.53
2023-04-01T21:11:59.726Z,77.69
2023-04-01T21:14:33.195Z,77.54
2023-04-01T21:17:08.745Z,78.03
2023-04-01T21:19:57.465Z,78.15
2023-04-01T21:22:41.914Z,77.76
2023-04-01T21:25:20.463Z,78.06
2023-04-01T21:28:11.885Z,79.06
2023-04-01T21:30:58.910Z,79.39
2023-04-01T21:33:52.106Z,79.85
2023-04-01T21:36:39.865Z,79.63
2023-04-01T21:39:28.263Z,79.65
2023-04-01T21:42:16.290Z,79.26
2023-04-01T21:45:03.411Z,80.18
2023-04-01T21:47:35.852Z,80.32
2023-04-01T21:50:40.290Z,81.00
2023-04-01T21:53:31.703Z,79.74
2023-04-01T21:56:01.122Z,80.77
2023-04-01T21:58:56.033Z,80.14
2023-04-01T22:01:45.189Z,81.05
2023-04-01T22:04:39.796Z,80.18
2023-04-01T22:07:18.213Z,79.68
2023-04-01T22:09:47.563Z,79.86
2023-04-01T22:12:34.454Z,80.86
2023-04-01T22:15:50.577Z,80.62
2023-04-01T22:18:34.917Z,80.13
2023-04-01T22:21:10.371Z,80.09
2023-04-01T22:23:53.643Z,81.12
2023-04-01T22:26:48.467Z,81.50
2023-04-01T22:29:23.876Z,80.91
2023-04-01T22:32:05.873Z,80.49
2023-04-01T22:35:06.024Z,79.15
2023-04-01T22:37:44.253Z,78.29
2023-04-01T22:40:26.612Z,78.59
2023-04-01T22:43:17.035Z,78.75
2023-04-01T22:46:08.370Z,78.53
2023-04-01T22:48:42.441Z,78.78
2023-04-01T22:51:30.297Z,79.51
2023-04-01T22:54:35.399Z,79.76
2023-04-01T22:57:11.314Z,79.31
2023-04-01T22:59:47.521Z,79.42
2023-04-01T23:02:27.118Z,80.13
2023-04-01T23:04:58.404Z,81.95
2023-04-01T23:07:54.879Z,81.24
2023-04-01T23:10:45.705Z,81.53
2023-04-01T23:13:23.350Z,80.88
2023-04-01T23:15:52.997Z,80.42
2023-04-01T23:18:31.114Z,80.17
2023-04-01T23:21:00.936Z,80.18
2023-04-01T23:24:23.320Z,79.12
2023-04-01T23:26:56.496Z,78.29
2023-04-01T23:29:23.972Z,79.01
2023-04-01T23:32:01.660Z,79.52
2023-04-01T23:34:32.343Z,79.96
2023-04-01T23:37:05.866Z,78.66
2023-04-01T23:39:41.940Z,78.19
2023-04-01T23:42:16.166Z,78.29
2023-04-01T23:44:44.785Z,78.83
2023-04-01T23:47:18.241Z,79.01
2023-04-01T23:49:52.520Z,78.69
2023-04-01T23:52:24.486Z,78.79
2023-04-01T23:55:00.724Z,78.72
2023-04-01T23:57:35.870Z,78.19
